Eaton, Illinois
Current Conditions -  °F | °C
As of 5:15 PM on Saturday 25 Oct 2014 (Local Time) from KRSV Reporting Station
Clear Clear  
Wind Chill: 79°   Ceiling: Unl
Heat Index: 79°   Visibility: 10mi
Dew Point: 48°   Wind: 7mph
Humidity: 34%   Direction: 290°WNW
Pressure: 29.98"   Gusts: NA
Location:  39.0131°N, 87.7657°W
Report Text: KRSV 252215Z AUTO 29006KT 10SM CLR 26/09 A2998 RMK AO2 T02590088
Loading
Personal Weather Stations






























Interactive Weather Map
Tropical Storm Tracking
New forecast layout! Learn more

10-Day Weather Forecast

Advertisements
Track Severe Weather on mobile